Terminal Aerodrome Forecast
Issued by NWS

Home | Current Version | Previous Version | Text Only | Print | Product List | Glossary On
Versions: 1 2 3 4 5 6 7 8 9 10 11 12 13 14 15 16
312
FTUS45 KTFX 131735
TAFGTF
TAF
KGTF 131735Z 1318/1418 27022G35KT P6SM SCT150
     FM140000 23015G25KT P6SM SCT090 BKN150
     FM140600 23015G25KT P6SM BKN090=

USA.gov is the U.S. government's official web portal to all federal, state and local government web resources and services.